topeak.com alexa rank chart, topeak.com alexa rank daily changes

topeak.com alexa rank chart, topeak.com alexa rank daily changes

topeak.com
Actual rank:
136 589

RANK HISTORY

Date Rank Diff
2017/04/26 136 589 -791
2017/04/25 137 380 -3 472
2017/04/24 140 852 -3 103
2017/04/23 143 955 +2 726
2017/04/22 141 229 -25
2017/04/21 141 254 +465
2017/04/20 140 789 +4 653
2017/04/19 136 136 -6 894
2017/04/18 143 030 -2 184
2017/04/17 145 214 -4 147
2017/04/16 149 361 -5 398
2017/04/15 154 759 +3 240
2017/04/14 151 519 +1 384
2017/04/13 150 135 -419
2017/04/12 150 554 -8 799
2017/04/11 159 353 +3 680
2017/04/10 155 673 -160
2017/04/09 155 833 -1 925
2017/04/08 157 758 -2 427
2017/04/07 160 185 -3 491
2017/04/06 163 676 -599
2017/04/05 164 275 -833
2017/04/04 165 108 +2 547
2017/04/03 162 561 -959
2017/04/02 163 520 -615
2017/04/01 164 135 -661
2017/03/31 164 796 +1 941
2017/03/30 162 855 +143
2017/03/29 162 712 -4 750
2017/03/28 167 462 -5 527
2017/03/27 172 989 -4 889
2017/03/26 177 878 -3 537
2017/03/25 181 415 -1 000
2017/03/24 182 415 +655
2017/03/23 181 760 -11 501
2017/03/22 193 261 -4 686
2017/03/21 197 947 -6 478
2017/03/20 204 425 -11 989
2017/03/19 216 414 -859
2017/03/18 217 273 +7 411
2017/03/17 209 862 -1 968
2017/03/16 211 830 -3 291
2017/03/15 215 121 -10 099
2017/03/14 225 220 -2 688
2017/03/13 227 908 -6 466
2017/03/12 234 374 +1 045
2017/03/11 233 329 -16 121
2017/03/10 249 450 -8 342
2017/03/09 257 792 +4 228
2017/03/08 253 564 +2 329
2017/03/07 251 235 -33 447
2017/03/06 284 682 +4 606
2017/03/01 280 076 +8 456
2017/02/28 271 620 -4 655
2017/02/27 276 275 +8 327
2017/02/26 267 948 +5 655
2017/02/25 262 293

WIDGET FOR YOUR SITE

DOMAINS WITH THE NEAREST RANK

Domain Rank
geapplianceparts.com 136 584
portugal-a-programar.pt 136 585
tdecu.org 136 586
neigou.com 136 587
kriti24.gr 136 588
topeak.com 136 589
autobilis.lt 136 590
clicksophia.com.br 136 591
aving.net 136 592
ariuspay.ru 136 593
stephenwiltshire.co.uk 136 594

DOMAINS WITH THE NEAREST RANK BY TLD .com

Domain Rank
consejosdeinternet.com 136 577
newswise.com 136 578
xdarom.com 136 580
geapplianceparts.com 136 584
neigou.com 136 587
topeak.com 136 589
wordpresstemporal.com 136 596
dunhamssports.com 136 597
heartquickupdate.com 136 598
starwindsoftware.com 136 600
arinchina.com 136 603